• Join FlightAware (Why Join?)
  • Login
  • US Flag 
05:54AM EDT


 

Airport Tracker/Info


-or-


 

Live Flight TrackerFlight Track Log ✈ UAL395 ✈ 05-May-2013 ✈ KIAH - KSJC

Flight Track Log - Related Links

Times and Time Zones

All times are in EDT time to prevent confusion due to time zone crossing. See the UAL395 flight status page for this flight to view local times or setup timezone preferences in your user account.

Time Position Orientation Groundspeed Altitude Reporting Facility
EDT Latitude Longitude Course Direction KTS MPH feet Rate Location/Type
10:19AM 29.9864 -95.3600 276° West 157 181 1,000  Level Houston Center
10:21AM 29.9933 -95.4603 275° West 229 264 5,000 2,820 Climbing Houston Center
10:22AM 30.0247 -95.7051 276° West  Level FlightAware Approximate
10:22AM 30.0006 -95.5392 276° West 247 284 8,200  Level Houston Center
10:23AM 30.0358 -95.8298 276° West  Level FlightAware Approximate
10:23AM 30.0117 -95.6175 279° West 250 288 10,700  Level Houston Center
10:24AM 30.0462 -95.9546 276° West  Level FlightAware Approximate
10:24AM 30.0289 -95.7414 279° West 317 365 13,100  Level Houston Center
10:25AM 30.0690 -96.0760 276° West  Level FlightAware Approximate
10:25AM 30.0433 -95.8478 279° West 337 388 15,500  Level Houston Center
10:26AM 30.0583 -95.9578 279° West 347 399 17,800 2,160 Climbing Houston Center
10:27AM 30.0736 -96.0817 278° West 361 415 20,000 1,980 Climbing Houston Center
10:28AM 30.0922 -96.1994 280° West 374 430 21,900 1,860 Climbing Houston Center
10:29AM 30.1097 -96.3186 280° West 379 436 23,900 1,680 Climbing Houston Center
10:30AM 30.1289 -96.4372 281° West 386 444 25,400 1,380 Climbing Houston Center
10:31AM 30.1467 -96.5661 279° West 400 460 26,800 1,080 Climbing Houston Center
10:32AM 30.1675 -96.6950 281° West 405 466 27,700 540 Climbing Houston Center
10:33AM 30.1872 -96.8269 280° West 410 472 28,000 720 Climbing Houston Center
10:34AM 30.2108 -96.9811 280° West 412 474 29,200 1,200 Climbing Houston Center
10:35AM 30.2303 -97.1167 279° West 422 486 30,500 1,380 Climbing Houston Center
10:36AM 30.2503 -97.2511 280° West 418 481 32,100 1,380 Climbing Houston Center
10:37AM 30.2686 -97.3850 279° West 416 479 33,400 900 Climbing Houston Center
10:38AM 30.2881 -97.5172 280° West 410 472 34,000 240 Climbing Houston Center
10:39AM 30.3072 -97.6494 280° West 411 473 34,000  Level Houston Center
10:40AM 30.3244 -97.7783 279° West 403 464 34,000  Level Houston Center
10:41AM 30.3425 -97.9072 279° West 401 461 34,000  Level Houston Center
10:42AM 30.3619 -98.0381 280° West 405 466 34,000  Level Houston Center
10:43AM 30.3811 -98.1697 280° West 408 470 34,000  Level Houston Center
10:44AM 30.3994 -98.3017 279° West 411 473 34,000  Level Houston Center
10:45AM 30.4178 -98.4333 279° West 410 472 34,000  Level Houston Center
10:46AM 30.4386 -98.5639 281° West 406 467 34,000  Level Houston Center
10:47AM 30.4733 -98.6903 288° West 407 468 34,000  Level Houston Center
10:48AM 30.5108 -98.8156 289° West 407 468 34,000  Level Houston Center
10:49AM 30.5511 -98.9614 288° West 404 465 34,000  Level Houston Center
10:51AM 30.5875 -99.0869 289° West 405 466 34,000  Level Houston Center
10:52AM 30.6175 -99.2011 287° West 406 467 34,000  Level Houston Center
10:53AM 30.6528 -99.3247 288° West 406 467 34,000  Level Houston Center
10:54AM 30.6875 -99.4494 288° West 407 468 34,000  Level Houston Center
10:55AM 30.7269 -99.5972 287° West 403 464 34,000  Level Houston Center
10:56AM 30.7614 -99.7214 288° West 405 466 34,000  Level Houston Center
10:57AM 30.7950 -99.8469 287° West 407 468 34,000  Level Houston Center
10:58AM 30.8292 -99.9708 288° West 405 466 34,000  Level Houston Center
10:59AM 30.8614 -100.0947 287° West 404 465 34,000  Level Houston Center
11:00AM 30.8953 -100.2197 288° West 406 467 34,000  Level Houston Center
11:01AM 30.9353 -100.3675 288° West 403 464 34,000  Level Houston Center
11:02AM 30.9678 -100.4914 287° West 403 464 34,000  Level Houston Center
11:03AM 31.0003 -100.6139 287° West 399 459 34,000  Level Houston Center
11:04AM 31.0325 -100.7381 287° West 402 463 34,000  Level Houston Center
11:05AM 31.0644 -100.8614 287° West 402 463 34,000  Level Houston Center
11:06AM 31.0961 -100.9853 287° West 402 463 34,000  Level Houston Center
11:07AM 31.1281 -101.1086 287° West 401 461 34,000  Level Houston Center
11:08AM 31.1694 -101.2519 289° West 392 451 34,000  Level Houston Center
11:09AM 31.2258 -101.3667 300° West 407 468 34,000  Level Houston Center
11:10AM 31.3058 -101.4567 316° Northwest 403 464 34,000  Level Houston Center
11:11AM 31.3872 -101.5464 317° Northwest 404 465 34,000  Level Houston Center
11:12AM 31.4336 -101.6008 315° West 401 461 34,000  Level Fort Worth Center
11:13AM 31.5142 -101.6922 316° Northwest 401 461 34,000  Level Fort Worth Center
11:14AM 31.5967 -101.7839 317° Northwest 401 461 34,000  Level Fort Worth Center
11:15AM 31.6769 -101.8756 316° Northwest 401 461 34,000  Level Fort Worth Center
11:16AM 31.7592 -101.9650 317° Northwest 401 461 34,000  Level Fort Worth Center
11:17AM 31.8433 -102.0644 315° West 406 467 34,000  Level Fort Worth Center
11:18AM 31.9214 -102.1542 316° Northwest 411 473 34,000  Level Fort Worth Center
11:19AM 32.0033 -102.2489 316° Northwest 411 473 34,000  Level Fort Worth Center
11:20AM 32.0853 -102.3417 316° Northwest 406 467 34,000  Level Fort Worth Center
11:21AM 32.1628 -102.4367 314° West 406 467 34,000  Level Fort Worth Center
11:22AM 32.2447 -102.5294 316° Northwest 406 467 34,000  Level Fort Worth Center
11:23AM 32.3264 -102.6250 315° West 406 467 34,000  Level Fort Worth Center
11:24AM 32.3981 -102.7103 315° West 406 467 34,000  Level Fort Worth Center
11:25AM 32.4817 -102.8039 317° Northwest 411 473 34,000  Level Fort Worth Center
11:26AM 32.5631 -102.8975 316° Northwest 411 473 34,000  Level Fort Worth Center
11:27AM 32.6444 -102.9911 316° Northwest 411 473 34,000  Level Fort Worth Center
11:28AM 32.7239 -103.0850 315° West 411 473 34,000  Level Fort Worth Center
11:29AM 32.8661 -103.2508 316° Northwest 411 473 34,000  Level Albuquerque Center
11:30AM 32.9475 -103.3456 316° Northwest 410 472 34,000  Level Albuquerque Center
11:31AM 33.0292 -103.4428 315° West 413 475 34,000  Level Albuquerque Center
11:32AM 33.1097 -103.5383 315° West 411 473 34,000  Level Albuquerque Center
11:33AM 33.1906 -103.6358 315° West 413 475 34,000  Level Albuquerque Center
11:34AM 33.2892 -103.7453 317° Northwest 419 482 34,000  Level Albuquerque Center
11:35AM 33.3706 -103.8442 315° West 419 482 34,000  Level Albuquerque Center
11:36AM 33.4511 -103.9414 315° West 416 479 34,000  Level Albuquerque Center
11:37AM 33.5336 -104.0519 312° West 415 478 34,000  Level Albuquerque Center
11:38AM 33.6008 -104.1631 306° West 414 476 34,000  Level Albuquerque Center
11:40AM 33.6733 -104.2831 306° West 415 478 34,000  Level Albuquerque Center
11:41AM 33.7417 -104.3947 306° West 416 479 34,000  Level Albuquerque Center
11:42AM 33.8097 -104.5061 306° West 416 479 34,000  Level Albuquerque Center
11:43AM 33.8825 -104.6269 306° West 416 479 34,000  Level Albuquerque Center
11:44AM 33.9506 -104.7381 306° West 415 478 34,000  Level Albuquerque Center
11:45AM 34.0239 -104.8558 307° West 415 478 34,000  Level Albuquerque Center
11:46AM 34.0928 -104.9689 306° West 415 478 34,000  Level Albuquerque Center
11:47AM 34.1631 -105.0850 306° West 419 482 34,000  Level Albuquerque Center
11:48AM 34.2317 -105.2006 306° West 420 483 34,000  Level Albuquerque Center
11:49AM 34.3008 -105.3156 306° West 419 482 34,000  Level Albuquerque Center
11:50AM 34.3700 -105.4317 306° West 418 481 34,000  Level Albuquerque Center
11:51AM 34.4408 -105.5492 306° West 423 487 34,000  Level Albuquerque Center
11:52AM 34.5092 -105.6664 305° West 423 487 34,000  Level Albuquerque Center
11:53AM 34.5789 -105.7831 306° West 423 487 34,000  Level Albuquerque Center
11:54AM 34.6486 -105.9003 306° West 424 488 34,000  Level Albuquerque Center
11:55AM 34.7172 -106.0181 305° West 423 487 34,000  Level Albuquerque Center
11:56AM 34.7964 -106.1544 305° West 420 483 34,000  Level Albuquerque Center
11:57AM 34.8628 -106.2692 305° West 421 484 34,000  Level Albuquerque Center
11:58AM 34.9317 -106.3869 306° West 425 489 34,000  Level Albuquerque Center
11:59AM 35.0006 -106.5036 306° West 426 490 34,000  Level Albuquerque Center
12:00PM 35.0667 -106.6239 304° West 431 496 34,000  Level Albuquerque Center
12:01PM 35.1444 -106.7533 306° West 425 489 34,000  Level Albuquerque Center
12:02PM 35.2081 -106.8672 304° West 425 489 34,000  Level Albuquerque Center
12:03PM 35.2811 -107.0019 304° West 424 488 34,000  Level Albuquerque Center
12:04PM 35.3136 -107.1319 287° West 415 478 34,100 720 Climbing Albuquerque Center
12:05PM 35.3475 -107.2664 287° West 421 484 35,500 900 Climbing Albuquerque Center
12:06PM 35.3833 -107.4131 287° West 413 475 36,000 240 Climbing Albuquerque Center
12:07PM 35.4161 -107.5406 288° West 410 472 36,000  Level Albuquerque Center
12:08PM 35.4519 -107.6881 287° West 406 467 36,000  Level Albuquerque Center
12:09PM 35.4825 -107.8144 287° West 404 465 36,000  Level Albuquerque Center
12:10PM 35.5194 -107.9617 287° West 404 465 36,000  Level Albuquerque Center
12:11PM 35.5514 -108.0886 287° West 405 466 36,000  Level Albuquerque Center
12:12PM 35.5872 -108.2367 287° West 404 465 36,000  Level Albuquerque Center
12:13PM 35.6175 -108.3625 287° West 401 461 36,000  Level Albuquerque Center
12:14PM 35.6489 -108.4900 287° West 404 465 36,000  Level Albuquerque Center
12:15PM 35.6842 -108.6369 287° West 401 461 36,000  Level Albuquerque Center
12:16PM 35.7144 -108.7633 286° West 399 459 36,000  Level Albuquerque Center
12:18PM 35.7494 -108.9119 286° West 401 461 36,000  Level Albuquerque Center
12:19PM 35.7797 -109.0400 286° West 403 464 36,000  Level Albuquerque Center
12:20PM 35.8092 -109.1689 286° West 405 466 36,000  Level Albuquerque Center
12:21PM 35.8442 -109.3178 286° West 404 465 36,000  Level Albuquerque Center
12:22PM 35.8744 -109.4461 286° West 405 466 36,000  Level Albuquerque Center
12:23PM 35.9086 -109.5947 286° West 403 464 36,000  Level Albuquerque Center
12:23PM 35.9272 -109.6825 285° West 408 470 36,000  Level Denver Center
12:24PM 35.9311 -109.8139 272° West 404 465 36,000  Level Denver Center
12:25PM 35.9356 -109.9681 272° West 403 464 36,000  Level Denver Center
12:26PM 35.9394 -110.0986 272° West 400 460 36,000  Level Denver Center
12:28PM 35.9431 -110.2328 272° West 403 464 36,000  Level Denver Center
12:29PM 35.9478 -110.3986 272° West 404 465 36,000  Level Denver Center
12:30PM 35.9514 -110.5367 272° West 403 464 36,000  Level Denver Center
12:31PM 35.9556 -110.6728 272° West 400 460 36,000  Level Denver Center
12:32PM 35.9597 -110.8106 272° West 402 463 36,000  Level Denver Center
12:33PM 35.9625 -110.9478 271° West 401 461 36,000  Level Denver Center
12:34PM 35.9658 -111.0831 272° West 398 458 36,000  Level Denver Center
12:35PM 35.9700 -111.2450 272° West 395 455 36,000  Level Denver Center
12:36PM 35.9728 -111.3803 271° West 395 455 36,000  Level Denver Center
12:37PM 35.9758 -111.5161 272° West 395 455 36,000  Level Denver Center
12:38PM 35.9783 -111.6519 271° West 396 456 36,000  Level Denver Center
12:39PM 35.9800 -111.7892 271° West 399 459 36,000  Level Denver Center
12:40PM 35.9825 -111.9261 271° West 400 460 36,000  Level Denver Center
12:41PM 35.9853 -112.0908 271° West 400 460 36,000  Level Denver Center
12:42PM 35.9875 -112.2292 271° West 402 463 36,000  Level Denver Center
12:43PM 35.9897 -112.3678 271° West 403 464 36,000  Level Denver Center
12:44PM 35.9906 -112.5325 270° West 399 459 36,000  Level Los Angeles Center
12:45PM 35.9936 -112.6694 272° West 398 458 36,000  Level Los Angeles Center
12:46PM 35.9947 -112.8069 271° West 398 458 36,000  Level Los Angeles Center
12:47PM 35.9961 -112.9725 271° West 400 460 36,000  Level Los Angeles Center
12:48PM 35.9967 -113.1083 270° West 396 456 36,000  Level Los Angeles Center
12:49PM 35.9983 -113.2444 271° West 396 456 36,000  Level Los Angeles Center
12:50PM 35.9981 -113.3781 270° West 397 457 36,000  Level Los Angeles Center
12:51PM 35.9992 -113.5142 271° West 396 456 36,000  Level Los Angeles Center
12:53PM 35.9992 -113.6792 270° West 400 460 36,000  Level Los Angeles Center
12:54PM 35.9994 -113.8158 270° West 399 459 36,000  Level Los Angeles Center
12:55PM 36.0100 -113.9528 275° West 400 460 36,000  Level Los Angeles Center
12:56PM 36.0411 -114.0883 286° West 409 471 36,000 240 Level Los Angeles Center
12:57PM 36.0706 -114.2236 285° West 408 470 36,500 660 Climbing Los Angeles Center
12:58PM 36.1003 -114.3608 285° West 412 474 37,400 720 Climbing Los Angeles Center
12:59PM 36.1356 -114.5275 285° West 417 480 38,000 240 Climbing Los Angeles Center
01:00PM 36.1653 -114.6647 285° West 414 476 38,000  Level Los Angeles Center
01:01PM 36.1942 -114.8036 284° West 416 479 38,000  Level Los Angeles Center
01:02PM 36.2239 -114.9408 285° West 415 478 38,000  Level Los Angeles Center
01:03PM 36.2528 -115.0803 284° West 417 480 38,000  Level Los Angeles Center
01:04PM 36.2817 -115.2194 284° West 419 482 38,000  Level Los Angeles Center
01:05PM 36.3161 -115.3864 284° West 419 482 38,000  Level Los Angeles Center
01:06PM 36.3442 -115.5247 284° West 421 484 38,000  Level Los Angeles Center
01:07PM 36.3708 -115.6606 284° West 427 491 38,000  Level Los Angeles Center
01:08PM 36.4044 -115.8300 284° West 427 491 38,000  Level Los Angeles Center
01:09PM 36.4328 -115.9742 284° West 425 489 38,000  Level Los Angeles Center
01:10PM 36.4611 -116.1181 284° West 428 493 38,000  Level Los Angeles Center
01:11PM 36.4892 -116.2575 284° West 430 495 38,000  Level Los Angeles Center
01:12PM 36.5169 -116.4022 283° West 432 497 38,000  Level Los Angeles Center
01:13PM 36.5458 -116.5525 283° West 429 494 38,000  Level Los Angeles Center
01:14PM 36.5750 -116.6972 284° West 430 495 38,000  Level Los Angeles Center
01:15PM 36.6086 -116.8725 283° West 432 497 38,000  Level Los Angeles Center
01:16PM 36.6339 -117.0072 283° West 430 495 38,000  Level Los Angeles Center
01:17PM 36.6611 -117.1542 283° West 435 501 38,000  Level Los Angeles Center
01:18PM 36.6883 -117.2992 283° West 433 498 38,000  Level Los Angeles Center
01:19PM 36.7158 -117.4431 283° West 431 496 38,000  Level Los Angeles Center
01:20PM 36.7469 -117.6161 283° West 429 494 38,000  Level Los Angeles Center
01:22PM 36.7742 -117.7619 283° West 432 497 38,000 -180 Level Los Angeles Center
01:23PM 36.8031 -117.9256 282° West 433 498 37,700 -780 Descending Los Angeles Center
01:24PM 36.8314 -118.0736 283° West 436 502 36,500 -840 Descending Los Angeles Center
01:25PM 36.8569 -118.2225 282° West 436 502 36,000 -720 Descending Los Angeles Center
01:26PM 36.8831 -118.3739 282° West 426 490 35,000 -1,080 Descending Los Angeles Center
01:26PM 36.8986 -118.4764 281° West 422 486 34,100 -960 Descending Oakland Center
01:27PM 36.9283 -118.6308 284° West 437 503 33,400 -1,740 Descending Oakland Center
01:28PM 36.9519 -118.7767 281° West 431 496 30,600 -2,400 Descending Oakland Center
01:29PM 36.9803 -118.9264 283° West 436 502 28,500 -1,860 Descending Oakland Center
01:30PM 37.0039 -119.0694 282° West 422 486 26,900 -1,560 Descending Oakland Center
01:32PM 37.0256 -119.2061 281° West 401 461 25,400 -1,740 Descending Oakland Center
01:33PM 37.0481 -119.3408 282° West 378 435 23,400 -1,980 Descending Oakland Center
01:34PM 37.0708 -119.4803 282° West 401 461 21,400 -1,680 Descending Oakland Center
01:35PM 37.0928 -119.6156 282° West 401 461 20,000 -720 Descending Oakland Center
01:36PM 37.1189 -119.7819 281° West 408 470 20,000  Level Oakland Center
01:37PM 37.1411 -119.9236 281° West 401 461 20,000 -420 Level Oakland Center
01:38PM 37.1642 -120.0658 282° West 412 474 19,200 -1,740 Descending Oakland Center
01:39PM 37.1850 -120.2025 281° West 401 461 16,500 -2,580 Descending Oakland Center
01:40PM 37.2058 -120.3375 281° West 392 451 14,000 -2,340 Descending Oakland Center
01:41PM 37.2000 -120.4500 266° West 397 457 12,200 -1,920 Descending Northern Cal TRACON
01:42PM 37.1833 -120.5833 261° West 377 434 10,500 -1,140 Descending Northern Cal TRACON
01:43PM 37.1500 -120.7000 250° West 354 407 10,000 -300 Descending Northern Cal TRACON
01:44PM 37.1333 -120.8167 260° West 354 407 10,000  Level Northern Cal TRACON
01:45PM 37.1000 -120.9333 250° West 354 407 10,000  Level Northern Cal TRACON
01:45PM 37.1031 -120.9453 288° West 341 392 10,000  Level Oakland Center
01:46PM 37.0764 -121.0647 254° West 352 405 10,000  Level Oakland Center
01:47PM 37.0467 -121.2006 255° West 355 409 10,000 -60 Level Oakland Center
01:48PM 37.0203 -121.3206 255° West 357 411 9,900 -60 Descending Oakland Center
01:49PM 36.9947 -121.4381 255° West 354 407 9,900 -420 Level Oakland Center
01:50PM 37.0128 -121.5358 283° West 308 354 9,100 -1,020 Descending Oakland Center
01:51PM 37.0433 -121.6294 292° West 294 338 7,900 -1,020 Descending Oakland Center
01:52PM 37.0719 -121.7242 291° West 292 336 7,100 -1,080 Descending Oakland Center
01:53PM 37.1033 -121.8133 294° West 285 328 5,800 -1,140 Descending Oakland Center
01:54PM 37.1333 -121.8667 305° West 289 333 5,300 -720 Descending Northern Cal TRACON
01:54PM 37.1644 -121.8967 322° Northwest 286 329 5,100 -180 Descending Oakland Center
01:55PM 37.2350 -121.9369 336° Northwest 283 326 5,100 -240 Level Oakland Center
01:56PM 37.3056 -121.9800 334° Northwest 280 322 4,700 -840 Descending Oakland Center
01:57PM 37.3569 -122.0450 315° West 270 311 3,400 -1,320 Descending Oakland Center
01:58PM 37.3833 -122.0833 311° West 267 307 2,800 -1,320 Descending Northern Cal TRACON